Time;durP1;ratioP1;P1;durP2;ratioP2;P2;SDS_P1;SDS_P2;PMS_P1;PMS_P2;Temp;Humidity;BMP_temperature;BMP_pressure;BME280_temperature;BME280_humidity;BME280_pressure;Samples;Min_cycle;Max_cycle;Signal;HPM_P1;HPM_P2
2023/04/23 00:02:15;;;;;;;;;;;;;;;-141.59;100.00;61776.25;5103281;28;19944;-86
2023/04/23 00:04:49;;;;;;;;;;;;;;;-141.59;100.00;61776.25;5107165;28;20041;-85
2023/04/23 00:07:18;;;;;;;;;;;;;;;-141.59;100.00;61776.25;5101634;28;19943;-86
2023/04/23 00:09:46;;;;;;;;;;;;;;;-141.59;100.00;61776.25;5108312;28;19953;-86
2023/04/23 00:12:13;;;;;;;;;;;;;;;-141.59;100.00;61776.25;5107418;28;20120;-86
2023/04/23 00:14:40;;;;;;;;;;;;;;;-141.59;100.00;61776.25;5123104;27;19964;-86
2023/04/23 00:17:07;;;;;;;;;;;;;;;-141.59;100.00;61776.25;5109366;28;19980;-86
2023/04/23 00:19:33;;;;;;;;;;;;;;;-141.59;100.00;61776.25;5108734;28;19944;-86
2023/04/23 00:22:00;;;;;;;;;;;;;;;-141.59;100.00;61776.25;5106984;28;19957;-87
2023/04/23 00:24:30;;;;;;;;;;;;;;;-141.59;100.00;61776.25;5102244;28;19956;-86
2023/04/23 00:26:57;;;;;;;;;;;;;;;-141.59;100.00;61776.25;5099354;28;20015;-86
2023/04/23 00:29:24;;;;;;;;;;;;;;;-141.59;100.00;61776.25;5102668;28;19985;-86
2023/04/23 00:31:50;;;;;;;;;;;;;;;-141.59;100.00;61776.25;5111170;28;19943;-86
2023/04/23 00:34:17;;;;;;;;;;;;;;;-141.59;100.00;61776.25;5105457;28;19954;-86
2023/04/23 00:36:44;;;;;;;;;;;;;;;-141.59;100.00;61776.25;5104226;28;20063;-86
2023/04/23 00:39:11;;;;;;;;;;;;;;;-141.59;100.00;61776.25;5099774;28;19958;-85
2023/04/23 00:41:40;;;;;;;;;;;;;;;-141.59;100.00;61776.25;5121953;27;19976;-86
2023/04/23 00:44:07;;;;;;;;;;;;;;;-141.59;100.00;61776.25;5098477;28;19962;-86
2023/04/23 00:46:35;;;;;;;;;;;;;;;-141.59;100.00;61776.25;5108394;28;19974;-87
2023/04/23 00:49:02;;;;;;;;;;;;;;;-141.59;100.00;61776.25;5105617;28;19955;-86
2023/04/23 00:51:30;;;;;;;;;;;;;;;-141.59;100.00;61776.25;5121543;27;19946;-86
2023/04/23 00:53:57;;;;;;;;;;;;;;;-141.59;100.00;61776.25;5108330;28;20020;-86
2023/04/23 00:56:24;;;;;;;;;;;;;;;-141.59;100.00;61776.25;5104946;28;20039;-85
2023/04/23 00:58:53;;;;;;;;;;;;;;;-141.59;100.00;61776.25;5102898;28;19951;-86
2023/04/23 01:01:20;;;;;;;;;;;;;;;-141.59;100.00;61776.25;5109481;28;20015;-86
2023/04/23 01:03:48;;;;;;;;;;;;;;;-141.59;100.00;61776.25;5108496;28;19968;-84
2023/04/23 01:06:15;;;;;;;;;;;;;;;-141.59;100.00;61776.25;5097786;28;20112;-84
2023/04/23 01:08:43;;;;;;;;;;;;;;;-141.59;100.00;61776.25;5107853;28;19960;-86
2023/04/23 01:11:11;;;;;;;;;;;;;;;-141.59;100.00;61776.25;5099594;28;19947;-85
2023/04/23 01:13:37;;;;;;;;;;;;;;;-141.59;100.00;61776.25;5105771;28;19962;-87
2023/04/23 01:16:07;;;;;;;;;;;;;;;-141.59;100.00;61776.25;5098844;28;19957;-86
2023/04/23 01:18:33;;;;;;;;;;;;;;;-141.59;100.00;61776.25;5105238;28;19944;-85
2023/04/23 01:21:00;;;;;;;;;;;;;;;-141.59;100.00;61776.25;5108791;28;19943;-86
2023/04/23 01:23:29;;;;;;;;;;;;;;;-141.59;100.00;61776.25;5108873;28;19946;-86
2023/04/23 01:25:56;;;;;;;;;;;;;;;-141.59;100.00;61776.25;5108511;28;19955;-86
2023/04/23 01:28:23;;;;;;;;;;;;;;;-141.59;100.00;61776.25;5110339;28;19972;-86
2023/04/23 01:30:49;;;;;;;;;;;;;;;-141.59;100.00;61776.25;5101714;28;19947;-85
2023/04/23 01:33:16;;;;;;;;;;;;;;;-141.59;100.00;61776.25;5113521;27;19953;-86
2023/04/23 01:35:44;;;;;;;;;;;;;;;-141.59;100.00;61776.25;5107489;28;19949;-86
2023/04/23 01:38:11;;;;;;;;;;;;;;;-141.59;100.00;61776.25;5103251;28;20011;-86
2023/04/23 01:40:39;;;;;;;;;;;;;;;-141.59;100.00;61776.25;5111075;28;19955;-86
2023/04/23 01:43:07;;;;;;;;;;;;;;;-141.59;100.00;61776.25;5104853;28;19954;-86
2023/04/23 01:45:34;;;;;;;;;;;;;;;-141.59;100.00;61776.25;5108205;28;19969;-86
2023/04/23 01:48:01;;;;;;;;;;;;;;;-141.59;100.00;61776.25;5106225;28;19975;-86
2023/04/23 01:50:28;;;;;;;;;;;;;;;-141.59;100.00;61776.25;5106212;28;20019;-86
2023/04/23 01:52:55;;;;;;;;;;;;;;;-141.59;100.00;61776.25;5108059;28;19950;-86
2023/04/23 01:55:22;;;;;;;;;;;;;;;-141.59;100.00;61776.25;5108477;28;20055;-85
2023/04/23 01:57:51;;;;;;;;;;;;;;;-141.59;100.00;61776.25;5105995;28;19945;-86
2023/04/23 02:00:19;;;;;;;;;;;;;;;-141.59;100.00;61776.25;5107094;28;19955;-85
2023/04/23 02:02:46;;;;;;;;;;;;;;;-141.59;100.00;61776.25;5106734;28;19959;-86
2023/04/23 02:05:15;;;;;;;;;;;;;;;-141.59;100.00;61776.25;5104150;28;19963;-85
2023/04/23 02:07:42;;;;;;;;;;;;;;;-141.59;100.00;61776.25;5108977;28;20066;-85
2023/04/23 02:10:10;;;;;;;;;;;;;;;-141.59;100.00;61776.25;5108211;28;19990;-86
2023/04/23 02:12:37;;;;;;;;;;;;;;;-141.59;100.00;61776.25;5107569;28;19995;-86
2023/04/23 02:15:06;;;;;;;;;;;;;;;-141.59;100.00;61776.25;5108041;28;20038;-86
2023/04/23 02:17:32;;;;;;;;;;;;;;;-141.59;100.00;61776.25;5095065;28;19945;-86
2023/04/23 02:19:59;;;;;;;;;;;;;;;-141.59;100.00;61776.25;5110680;28;19975;-86
2023/04/23 02:22:27;;;;;;;;;;;;;;;-141.59;100.00;61776.25;5104664;28;19958;-86
2023/04/23 02:24:54;;;;;;;;;;;;;;;-141.59;100.00;61776.25;5101553;28;19962;-87
2023/04/23 02:27:21;;;;;;;;;;;;;;;-141.59;100.00;61776.25;5102335;28;20003;-88
2023/04/23 02:29:48;;;;;;;;;;;;;;;-141.59;100.00;61776.25;5117350;28;19970;-87
2023/04/23 02:32:16;;;;;;;;;;;;;;;-141.59;100.00;61776.25;5109163;28;19947;-87
2023/04/23 02:34:43;;;;;;;;;;;;;;;-141.59;100.00;61776.25;5094462;28;19946;-87
2023/04/23 02:37:10;;;;;;;;;;;;;;;-141.59;100.00;61776.25;5109634;28;19959;-87
2023/04/23 02:39:38;;;;;;;;;;;;;;;-141.59;100.00;61776.25;5109435;28;19965;-87
2023/04/23 02:42:05;;;;;;;;;;;;;;;-141.59;100.00;61776.25;5112359;28;20009;-88
2023/04/23 02:44:32;;;;;;;;;;;;;;;-141.59;100.00;61776.25;5110248;28;19979;-87
2023/04/23 02:46:58;;;;;;;;;;;;;;;-141.59;100.00;61776.25;5111913;28;20043;-88
2023/04/23 02:49:27;;;;;;;;;;;;;;;-141.59;100.00;61776.25;5110043;28;19948;-87
2023/04/23 02:51:53;;;;;;;;;;;;;;;-141.59;100.00;61776.25;5111014;28;19956;-87
2023/04/23 02:54:20;;;;;;;;;;;;;;;-141.59;100.00;61776.25;5104360;28;20037;-87
2023/04/23 02:56:47;;;;;;;;;;;;;;;-141.59;100.00;61776.25;5109049;28;19950;-87
2023/04/23 02:59:15;;;;;;;;;;;;;;;-141.59;100.00;61776.25;5108710;28;19949;-86
2023/04/23 03:01:41;;;;;;;;;;;;;;;-141.59;100.00;61776.25;5107159;28;19952;-87
2023/04/23 03:04:11;;;;;;;;;;;;;;;-141.59;100.00;61776.25;5106569;28;19968;-88
2023/04/23 03:06:39;;;;;;;;;;;;;;;-141.59;100.00;61776.25;5108095;28;19963;-87
2023/04/23 03:09:06;;;;;;;;;;;;;;;-141.59;100.00;61776.25;5102012;28;19958;-87
2023/04/23 03:11:33;;;;;;;;;;;;;;;-141.59;100.00;61776.25;5106240;28;19959;-88
2023/04/23 03:14:01;;;;;;;;;;;;;;;-141.59;100.00;61776.25;5114844;28;19962;-88
2023/04/23 03:16:28;;;;;;;;;;;;;;;-141.59;100.00;61776.25;5110925;28;19959;-86
2023/04/23 03:18:55;;;;;;;;;;;;;;;-141.59;100.00;61776.25;5104612;28;19949;-87
2023/04/23 03:21:21;;;;;;;;;;;;;;;-141.59;100.00;61776.25;5106592;28;19953;-86
2023/04/23 03:23:50;;;;;;;;;;;;;;;-141.59;100.00;61776.25;5107397;28;20276;-87
2023/04/23 03:26:17;;;;;;;;;;;;;;;-141.59;100.00;61776.25;5101419;28;19952;-86
2023/04/23 03:28:44;;;;;;;;;;;;;;;-141.59;100.00;61776.25;5112070;28;20314;-87
2023/04/23 03:31:11;;;;;;;;;;;;;;;-141.59;100.00;61776.25;5110391;28;19952;-88
2023/04/23 03:33:39;;;;;;;;;;;;;;;-141.59;100.00;61776.25;5100978;28;19946;-88
2023/04/23 03:36:06;;;;;;;;;;;;;;;-141.59;100.00;61776.25;5105252;28;19966;-87
2023/04/23 03:38:33;;;;;;;;;;;;;;;-141.59;100.00;61776.25;5109767;28;19962;-87
2023/04/23 03:41:04;;;;;;;;;;;;;;;-141.59;100.00;61776.25;5109871;28;19945;-87
2023/04/23 03:43:31;;;;;;;;;;;;;;;-141.59;100.00;61776.25;5107628;28;19949;-87
2023/04/23 03:46:04;;;;;;;;;;;;;;;-141.59;100.00;61776.25;5108523;28;19964;-86
2023/04/23 03:48:35;;;;;;;;;;;;;;;-141.59;100.00;61776.25;5110927;28;19948;-85
2023/04/23 03:51:06;;;;;;;;;;;;;;;-141.59;100.00;61776.25;5101732;28;19950;-87
2023/04/23 03:53:44;;;;;;;;;;;;;;;-141.59;100.00;61776.25;5109070;28;19945;-88
2023/04/23 03:56:31;;;;;;;;;;;;;;;-141.59;100.00;61776.25;5103675;28;20093;-87
2023/04/23 03:59:10;;;;;;;;;;;;;;;-141.59;100.00;61776.25;5106496;28;19945;-88
2023/04/23 04:01:37;;;;;;;;;;;;;;;-141.59;100.00;61776.25;5109714;28;19947;-87
2023/04/23 04:04:03;;;;;;;;;;;;;;;-141.59;100.00;61776.25;5106862;28;19954;-88
2023/04/23 04:06:33;;;;;;;;;;;;;;;-141.59;100.00;61776.25;5107517;28;19944;-88
2023/04/23 04:08:59;;;;;;;;;;;;;;;-141.59;100.00;61776.25;5093055;28;19953;-88
2023/04/23 04:11:26;;;;;;;;;;;;;;;-141.59;100.00;61776.25;5103406;28;19942;-88
2023/04/23 04:13:54;;;;;;;;;;;;;;;-141.59;100.00;61776.25;5108561;28;20048;-88
2023/04/23 04:16:21;;;;;;;;;;;;;;;-141.59;100.00;61776.25;5111085;28;19956;-88
2023/04/23 04:18:47;;;;;;;;;;;;;;;-141.59;100.00;61776.25;5124677;27;20049;-88
2023/04/23 04:21:14;;;;;;;;;;;;;;;-141.59;100.00;61776.25;5098381;28;19949;-87
2023/04/23 04:23:41;;;;;;;;;;;;;;;-141.59;100.00;61776.25;5106257;28;20013;-87
2023/04/23 04:26:08;;;;;;;;;;;;;;;-141.59;100.00;61776.25;5106673;28;19966;-88
2023/04/23 04:28:36;;;;;;;;;;;;;;;-141.59;100.00;61776.25;5110781;28;20044;-87
2023/04/23 04:31:05;;;;;;;;;;;;;;;-141.59;100.00;61776.25;5108491;28;19955;-88
2023/04/23 04:33:34;;;;;;;;;;;;;;;-141.59;100.00;61776.25;5107170;28;19953;-88
2023/04/23 04:36:01;;;;;;;;;;;;;;;-141.59;100.00;61776.25;5103760;28;19968;-87
2023/04/23 04:38:28;;;;;;;;;;;;;;;-141.59;100.00;61776.25;5104579;28;19963;-86
2023/04/23 04:40:57;;;;;;;;;;;;;;;-141.59;100.00;61776.25;5097612;28;19955;-87
2023/04/23 04:43:25;;;;;;;;;;;;;;;-141.59;100.00;61776.25;5100806;28;19957;-88
2023/04/23 04:45:52;;;;;;;;;;;;;;;-141.59;100.00;61776.25;5105784;28;19964;-88
2023/04/23 04:48:20;;;;;;;;;;;;;;;-141.59;100.00;61776.25;5105626;28;19954;-87
2023/04/23 04:50:47;;;;;;;;;;;;;;;-141.59;100.00;61776.25;5108599;28;19952;-87
2023/04/23 04:53:14;;;;;;;;;;;;;;;-141.59;100.00;61776.25;5108823;28;20049;-87
2023/04/23 04:55:41;;;;;;;;;;;;;;;-141.59;100.00;61776.25;5101759;28;19991;-88
2023/04/23 04:58:08;;;;;;;;;;;;;;;-141.59;100.00;61776.25;5109941;28;19949;-88
2023/04/23 05:00:35;;;;;;;;;;;;;;;-141.59;100.00;61776.25;5106700;28;19949;-87
2023/04/23 05:03:02;;;;;;;;;;;;;;;-141.59;100.00;61776.25;5106557;28;19968;-89
2023/04/23 05:05:30;;;;;;;;;;;;;;;-141.59;100.00;61776.25;5106785;28;19973;-88
2023/04/23 05:08:00;;;;;;;;;;;;;;;-141.59;100.00;61776.25;5108132;28;19986;-86
2023/04/23 05:10:27;;;;;;;;;;;;;;;-141.59;100.00;61776.25;5098652;28;19982;-87
2023/04/23 05:12:54;;;;;;;;;;;;;;;-141.59;100.00;61776.25;5109126;28;20001;-88
2023/04/23 05:15:21;;;;;;;;;;;;;;;-141.59;100.00;61776.25;5098522;28;19961;-89
2023/04/23 05:17:49;;;;;;;;;;;;;;;-141.59;100.00;61776.25;5112435;28;19942;-87
2023/04/23 05:20:16;;;;;;;;;;;;;;;-141.59;100.00;61776.25;5109657;28;19954;-88
2023/04/23 05:22:44;;;;;;;;;;;;;;;-141.59;100.00;61776.25;5101157;28;19943;-88
2023/04/23 05:25:11;;;;;;;;;;;;;;;-141.59;100.00;61776.25;5122679;27;19961;-87
2023/04/23 05:27:38;;;;;;;;;;;;;;;-141.59;100.00;61776.25;5117028;28;20043;-87
2023/04/23 05:30:07;;;;;;;;;;;;;;;-141.59;100.00;61776.25;5103704;28;20067;-87
2023/04/23 05:32:34;;;;;;;;;;;;;;;-141.59;100.00;61776.25;5109944;28;19943;-87
2023/04/23 05:35:01;;;;;;;;;;;;;;;-141.59;100.00;61776.25;5097682;28;19974;-87
2023/04/23 05:37:28;;;;;;;;;;;;;;;-141.59;100.00;61776.25;5098704;28;19976;-86
2023/04/23 05:39:56;;;;;;;;;;;;;;;-141.59;100.00;61776.25;5098216;28;19981;-88
2023/04/23 05:42:23;;;;;;;;;;;;;;;-141.59;100.00;61776.25;5106968;28;20015;-88
2023/04/23 05:44:51;;;;;;;;;;;;;;;-141.59;100.00;61776.25;5092866;28;19956;-88
2023/04/23 05:47:17;;;;;;;;;;;;;;;-141.59;100.00;61776.25;5102057;28;19963;-89
2023/04/23 05:49:44;;;;;;;;;;;;;;;-141.59;100.00;61776.25;5103443;28;19999;-88
2023/04/23 05:52:11;;;;;;;;;;;;;;;-141.59;100.00;61776.25;5104353;28;19961;-87
2023/04/23 05:54:38;;;;;;;;;;;;;;;-141.59;100.00;61776.25;5109657;28;20014;-89
2023/04/23 05:57:09;;;;;;;;;;;;;;;-141.59;100.00;61776.25;5096357;28;19948;-88
2023/04/23 05:59:35;;;;;;;;;;;;;;;-141.59;100.00;61776.25;5110818;28;19949;-88
2023/04/23 06:02:02;;;;;;;;;;;;;;;-141.59;100.00;61776.25;5110111;28;19961;-89
2023/04/23 06:04:29;;;;;;;;;;;;;;;-141.59;100.00;61776.25;5106585;28;20087;-87
2023/04/23 06:06:56;;;;;;;;;;;;;;;-141.59;100.00;61776.25;5105827;28;19969;-90
2023/04/23 06:09:23;;;;;;;;;;;;;;;-141.59;100.00;61776.25;5112315;28;19949;-87
2023/04/23 06:11:51;;;;;;;;;;;;;;;-141.59;100.00;61776.25;5101397;28;19944;-88
2023/04/23 06:14:19;;;;;;;;;;;;;;;-141.59;100.00;61776.25;5109729;28;20011;-88
2023/04/23 06:16:46;;;;;;;;;;;;;;;-141.59;100.00;61776.25;5108891;28;19944;-88
2023/04/23 06:19:13;;;;;;;;;;;;;;;-141.59;100.00;61776.25;5112452;28;19994;-88
2023/04/23 06:21:40;;;;;;;;;;;;;;;-141.59;100.00;61776.25;5113045;28;19944;-88
2023/04/23 06:24:07;;;;;;;;;;;;;;;-141.59;100.00;61776.25;5108847;28;19986;-87
2023/04/23 06:26:34;;;;;;;;;;;;;;;-141.59;100.00;61776.25;5104595;28;19956;-87
2023/04/23 06:29:06;;;;;;;;;;;;;;;-141.59;100.00;61776.25;5101207;28;19957;-88
2023/04/23 06:31:40;;;;;;;;;;;;;;;-141.59;100.00;61776.25;5102555;28;19947;-86
2023/04/23 06:34:07;;;;;;;;;;;;;;;-141.59;100.00;61776.25;5110357;28;19945;-88
2023/04/23 06:36:34;;;;;;;;;;;;;;;-141.59;100.00;61776.25;5107272;28;19973;-87
2023/04/23 06:39:00;;;;;;;;;;;;;;;-141.59;100.00;61776.25;5106068;28;19955;-88
2023/04/23 06:41:27;;;;;;;;;;;;;;;-141.59;100.00;61776.25;5108178;28;19943;-87
2023/04/23 06:44:08;;;;;;;;;;;;;;;-141.59;100.00;61776.25;5109884;28;19977;-88
2023/04/23 06:46:44;;;;;;;;;;;;;;;-141.59;100.00;61776.25;5103586;28;20057;-86
2023/04/23 06:49:11;;;;;;;;;;;;;;;-141.59;100.00;61776.25;5115544;27;20049;-87
2023/04/23 06:51:38;;;;;;;;;;;;;;;-141.59;100.00;61776.25;5100680;28;19956;-89
2023/04/23 06:54:05;;;;;;;;;;;;;;;-141.59;100.00;61776.25;5107374;28;19948;-86
2023/04/23 06:56:31;;;;;;;;;;;;;;;-141.59;100.00;61776.25;5101276;28;19950;-88
2023/04/23 06:58:58;;;;;;;;;;;;;;;-141.59;100.00;61776.25;5107397;28;20017;-87
2023/04/23 07:01:25;;;;;;;;;;;;;;;-141.59;100.00;61776.25;5100698;27;19946;-87
2023/04/23 07:03:54;;;;;;;;;;;;;;;-141.59;100.00;61776.25;5099178;27;20035;-88
2023/04/23 07:06:21;;;;;;;;;;;;;;;-141.59;100.00;61776.25;5101986;27;19971;-87
2023/04/23 07:08:48;;;;;;;;;;;;;;;-141.59;100.00;61776.25;5102230;28;19945;-87
2023/04/23 07:11:14;;;;;;;;;;;;;;;-141.59;100.00;61776.25;5105964;28;19947;-87
2023/04/23 07:13:42;;;;;;;;;;;;;;;-141.59;100.00;61776.25;5104066;27;20019;-87
2023/04/23 07:16:08;;;;;;;;;;;;;;;-141.59;100.00;61776.25;5100656;28;19956;-88
2023/04/23 07:18:35;;;;;;;;;;;;;;;-141.59;100.00;61776.25;5098109;28;19954;-86
2023/04/23 07:21:03;;;;;;;;;;;;;;;-141.59;100.00;61776.25;5110331;28;19957;-87
2023/04/23 07:23:31;;;;;;;;;;;;;;;-141.59;100.00;61776.25;5113542;27;19948;-86
2023/04/23 07:25:58;;;;;;;;;;;;;;;-141.59;100.00;61776.25;5100489;28;19958;-84
2023/04/23 07:28:24;;;;;;;;;;;;;;;-141.59;100.00;61776.25;5102587;27;19947;-86
2023/04/23 07:30:51;;;;;;;;;;;;;;;-141.59;100.00;61776.25;5097876;28;19947;-87
2023/04/23 07:33:18;;;;;;;;;;;;;;;-141.59;100.00;61776.25;5103997;28;19943;-85
2023/04/23 07:35:45;;;;;;;;;;;;;;;-141.59;100.00;61776.25;5109902;28;21331;-85
2023/04/23 07:38:13;;;;;;;;;;;;;;;-141.59;100.00;61776.25;5106533;27;19951;-86
2023/04/23 07:40:40;;;;;;;;;;;;;;;-141.59;100.00;61776.25;5102112;28;19952;-85
2023/04/23 07:43:07;;;;;;;;;;;;;;;-141.59;100.00;61776.25;5123841;27;19950;-85
2023/04/23 07:45:34;;;;;;;;;;;;;;;-141.59;100.00;61776.25;5106267;28;19952;-85
2023/04/23 07:48:01;;;;;;;;;;;;;;;-141.59;100.00;61776.25;5103630;27;19948;-86
2023/04/23 07:50:28;;;;;;;;;;;;;;;-141.59;100.00;61776.25;5102108;28;19947;-87
2023/04/23 07:52:54;;;;;;;;;;;;;;;-141.59;100.00;61776.25;5105625;28;19950;-86
2023/04/23 07:55:23;;;;;;;;;;;;;;;-141.59;100.00;61776.25;5113510;27;19956;-85
2023/04/23 07:57:52;;;;;;;;;;;;;;;-141.59;100.00;61776.25;5104236;28;19942;-85
2023/04/23 08:00:19;;;;;;;;;;;;;;;-141.59;100.00;61776.25;5102318;27;19964;-86
2023/04/23 08:02:46;;;;;;;;;;;;;;;-141.59;100.00;61776.25;5099658;28;20027;-86
2023/04/23 08:05:13;;;;;;;;;;;;;;;-141.59;100.00;61776.25;5099730;28;19946;-86
2023/04/23 08:07:40;;;;;;;;;;;;;;;-141.59;100.00;61776.25;5115921;27;19963;-86
2023/04/23 08:10:07;;;;;;;;;;;;;;;-141.59;100.00;61776.25;5109964;28;19946;-87
2023/04/23 08:12:35;;;;;;;;;;;;;;;-141.59;100.00;61776.25;5105219;28;19948;-87
2023/04/23 08:15:03;;;;;;;;;;;;;;;-141.59;100.00;61776.25;5107468;28;19988;-87
2023/04/23 08:17:36;;;;;;;;;;;;;;;-141.59;100.00;61776.25;5109357;28;19944;-87
2023/04/23 08:20:05;;;;;;;;;;;;;;;-141.59;100.00;61776.25;5101216;27;19975;-85
2023/04/23 08:22:32;;;;;;;;;;;;;;;-141.59;100.00;61776.25;5115923;27;19949;-85
2023/04/23 08:24:59;;;;;;;;;;;;;;;-141.59;100.00;61776.25;5100284;28;20044;-86
2023/04/23 08:27:25;;;;;;;;;;;;;;;-141.59;100.00;61776.25;5102297;28;19956;-85
2023/04/23 08:29:53;;;;;;;;;;;;;;;-141.59;100.00;61776.25;5109506;28;19991;-86
2023/04/23 08:32:20;;;;;;;;;;;;;;;-141.59;100.00;61776.25;5104766;28;19951;-87
2023/04/23 08:34:48;;;;;;;;;;;;;;;-141.59;100.00;61776.25;5106692;28;19944;-87
2023/04/23 08:37:14;;;;;;;;;;;;;;;-141.59;100.00;61776.25;5103085;28;19969;-89
2023/04/23 08:39:41;;;;;;;;;;;;;;;-141.59;100.00;61776.25;5102170;28;19952;-89
2023/04/23 08:42:11;;;;;;;;;;;;;;;-141.59;100.00;61776.25;5102260;28;19977;-88
2023/04/23 08:44:41;;;;;;;;;;;;;;;-141.59;100.00;61776.25;5106555;28;20033;-88
2023/04/23 08:47:11;;;;;;;;;;;;;;;-141.59;100.00;61776.25;5101897;28;20013;-88
2023/04/23 08:49:41;;;;;;;;;;;;;;;-141.59;100.00;61776.25;5106783;28;19952;-85
2023/04/23 08:52:13;;;;;;;;;;;;;;;-141.59;100.00;61776.25;5097172;28;20025;-85
2023/04/23 08:54:41;;;;;;;;;;;;;;;-141.59;100.00;61776.25;5099342;28;19948;-85
2023/04/23 08:57:09;;;;;;;;;;;;;;;-141.59;100.00;61776.25;5107247;28;20846;-86
2023/04/23 08:59:36;;;;;;;;;;;;;;;-141.59;100.00;61776.25;5103665;28;19990;-87
2023/04/23 09:02:06;;;;;;;;;;;;;;;-141.59;100.00;61776.25;5101157;28;20048;-86
2023/04/23 09:04:35;;;;;;;;;;;;;;;-141.59;100.00;61776.25;5121476;27;19953;-86
2023/04/23 09:07:02;;;;;;;;;;;;;;;-141.59;100.00;61776.25;5094049;28;19967;-86
2023/04/23 09:09:29;;;;;;;;;;;;;;;-141.59;100.00;61776.25;5107392;28;19945;-85
2023/04/23 09:11:56;;;;;;;;;;;;;;;-141.59;100.00;61776.25;5103450;28;19999;-86
2023/04/23 09:14:25;;;;;;;;;;;;;;;-141.59;100.00;61776.25;5102251;28;19966;-83
2023/04/23 09:16:52;;;;;;;;;;;;;;;-141.59;100.00;61776.25;5100706;28;19957;-86
2023/04/23 09:19:19;;;;;;;;;;;;;;;-141.59;100.00;61776.25;5108417;28;19958;-85
2023/04/23 09:21:47;;;;;;;;;;;;;;;-141.59;100.00;61776.25;5093176;28;19947;-86
2023/04/23 09:24:16;;;;;;;;;;;;;;;-141.59;100.00;61776.25;5097100;28;20033;-87
2023/04/23 09:26:47;;;;;;;;;;;;;;;-141.59;100.00;61776.25;5104257;28;19972;-86
2023/04/23 09:29:17;;;;;;;;;;;;;;;-141.59;100.00;61776.25;5101550;28;19957;-87
2023/04/23 09:31:44;;;;;;;;;;;;;;;-141.59;100.00;61776.25;5099013;28;19945;-87
2023/04/23 09:34:11;;;;;;;;;;;;;;;-141.59;100.00;61776.25;5108444;28;19953;-86
2023/04/23 09:36:38;;;;;;;;;;;;;;;-141.59;100.00;61776.25;5095927;28;20016;-87
2023/04/23 09:39:12;;;;;;;;;;;;;;;-141.59;100.00;61776.25;5101088;28;19952;-87
2023/04/23 09:41:39;;;;;;;;;;;;;;;-141.59;100.00;61776.25;5106740;28;19954;-86
2023/04/23 09:44:07;;;;;;;;;;;;;;;-141.59;100.00;61776.25;5113319;28;19943;-86
2023/04/23 09:46:34;;;;;;;;;;;;;;;-141.59;100.00;61776.25;5105658;28;20002;-85
2023/04/23 09:49:02;;;;;;;;;;;;;;;-141.59;100.00;61776.25;5110389;28;20003;-87
2023/04/23 09:51:30;;;;;;;;;;;;;;;-141.59;100.00;61776.25;5106522;28;20043;-87
2023/04/23 09:53:57;;;;;;;;;;;;;;;-141.59;100.00;61776.25;5112981;28;19954;-86
2023/04/23 09:56:26;;;;;;;;;;;;;;;-141.59;100.00;61776.25;5114913;28;19949;-87
2023/04/23 09:58:53;;;;;;;;;;;;;;;-141.59;100.00;61776.25;5112128;28;19952;-87
2023/04/23 10:01:27;;;;;;;;;;;;;;;-141.59;100.00;61776.25;5110392;28;19955;-86
2023/04/23 10:03:55;;;;;;;;;;;;;;;-141.59;100.00;61776.25;5110922;28;20003;-86
2023/04/23 10:06:27;;;;;;;;;;;;;;;-141.59;100.00;61776.25;5108920;28;19965;-87
2023/04/23 10:08:55;;;;;;;;;;;;;;;-141.59;100.00;61776.25;5112667;28;19957;-86
2023/04/23 10:11:22;;;;;;;;;;;;;;;-141.59;100.00;61776.25;5112920;28;19996;-86
2023/04/23 10:13:50;;;;;;;;;;;;;;;-141.59;100.00;61776.25;5111690;28;20125;-86
2023/04/23 10:16:18;;;;;;;;;;;;;;;-141.59;100.00;61776.25;5095570;28;19946;-86
2023/04/23 10:18:45;;;;;;;;;;;;;;;-141.59;100.00;61776.25;5098593;28;19946;-86
2023/04/23 10:21:15;;;;;;;;;;;;;;;-141.59;100.00;61776.25;5110803;28;19947;-86
2023/04/23 10:23:43;;;;;;;;;;;;;;;-141.59;100.00;61776.25;5112733;28;19988;-87
2023/04/23 10:26:11;;;;;;;;;;;;;;;-141.59;100.00;61776.25;5109871;28;20045;-86
2023/04/23 10:28:39;;;;;;;;;;;;;;;-141.59;100.00;61776.25;5108295;28;19945;-87
2023/04/23 10:31:08;;;;;;;;;;;;;;;-141.59;100.00;61776.25;5112117;28;19953;-87
2023/04/23 10:33:36;;;;;;;;;;;;;;;-141.59;100.00;61776.25;5098729;28;19957;-86
2023/04/23 10:36:02;;;;;;;;;;;;;;;-141.59;100.00;61776.25;5112518;28;20051;-86
2023/04/23 10:38:29;;;;;;;;;;;;;;;-141.59;100.00;61776.25;5109384;28;19946;-86
2023/04/23 10:40:58;;;;;;;;;;;;;;;-141.59;100.00;61776.25;5109044;28;19947;-87
2023/04/23 10:43:25;;;;;;;;;;;;;;;-141.59;100.00;61776.25;5095532;28;19954;-86
2023/04/23 10:45:52;;;;;;;;;;;;;;;-141.59;100.00;61776.25;5104690;28;19945;-86
2023/04/23 10:48:21;;;;;;;;;;;;;;;-141.59;100.00;61776.25;5109659;28;19968;-86
2023/04/23 10:50:57;;;;;;;;;;;;;;;-141.59;100.00;61776.25;5111395;28;20017;-86
2023/04/23 10:53:24;;;;;;;;;;;;;;;-141.59;100.00;61776.25;5108547;28;19951;-86
2023/04/23 10:55:51;;;;;;;;;;;;;;;-141.59;100.00;61776.25;5122232;28;19945;-85
2023/04/23 10:58:19;;;;;;;;;;;;;;;-141.59;100.00;61776.25;5108084;28;19952;-87
2023/04/23 11:00:46;;;;;;;;;;;;;;;-141.59;100.00;61776.25;5103543;28;19944;-85
2023/04/23 11:03:34;;;;;;;;;;;;;;;-141.59;100.00;61776.25;5098507;28;20043;-86
2023/04/23 11:06:02;;;;;;;;;;;;;;;-141.59;100.00;61776.25;5096408;28;19954;-86
2023/04/23 11:08:31;;;;;;;;;;;;;;;-141.59;100.00;61776.25;5101026;28;19983;-86
2023/04/23 11:10:58;;;;;;;;;;;;;;;-141.59;100.00;61776.25;5102870;28;19953;-86
2023/04/23 11:13:25;;;;;;;;;;;;;;;-141.59;100.00;61776.25;5108372;28;19981;-86
2023/04/23 11:16:11;;;;;;;;;;;;;;;-141.59;100.00;61776.25;5098671;28;19949;-86
2023/04/23 11:18:53;;;;;;;;;;;;;;;-141.59;100.00;61776.25;5112991;28;19951;-86
2023/04/23 11:21:21;;;;;;;;;;;;;;;-141.59;100.00;61776.25;5107859;28;19948;-87
2023/04/23 11:23:48;;;;;;;;;;;;;;;-141.59;100.00;61776.25;5103952;28;19948;-85
2023/04/23 11:26:16;;;;;;;;;;;;;;;-141.59;100.00;61776.25;5105260;28;19958;-86
2023/04/23 11:28:43;;;;;;;;;;;;;;;-141.59;100.00;61776.25;5108409;28;19957;-85
2023/04/23 11:31:10;;;;;;;;;;;;;;;-141.59;100.00;61776.25;5095437;28;19987;-85
2023/04/23 11:33:38;;;;;;;;;;;;;;;-141.59;100.00;61776.25;5108814;28;20033;-86
2023/04/23 11:36:05;;;;;;;;;;;;;;;-141.59;100.00;61776.25;5036511;28;1973433;-85
2023/04/23 11:38:33;;;;;;;;;;;;;;;-141.59;100.00;61776.25;5105132;28;19975;-85
2023/04/23 11:41:02;;;;;;;;;;;;;;;-141.59;100.00;61776.25;5099309;28;19948;-84
2023/04/23 11:43:29;;;;;;;;;;;;;;;-141.59;100.00;61776.25;5100321;28;19951;-85
2023/04/23 11:45:56;;;;;;;;;;;;;;;-141.59;100.00;61776.25;5108368;28;20035;-85
2023/04/23 11:48:23;;;;;;;;;;;;;;;-141.59;100.00;61776.25;5105713;28;19967;-86
2023/04/23 11:50:50;;;;;;;;;;;;;;;-141.59;100.00;61776.25;5111778;28;19947;-84
2023/04/23 11:53:17;;;;;;;;;;;;;;;-141.59;100.00;61776.25;5098742;28;19943;-85
2023/04/23 11:55:48;;;;;;;;;;;;;;;-141.59;100.00;61776.25;5104536;28;19946;-85
2023/04/23 11:58:17;;;;;;;;;;;;;;;-141.59;100.00;61776.25;5119468;27;19945;-86
2023/04/23 12:00:44;;;;;;;;;;;;;;;-141.59;100.00;61776.25;5106160;28;20010;-85
2023/04/23 12:03:12;;;;;;;;;;;;;;;-141.59;100.00;61776.25;5097607;28;19955;-84
2023/04/23 12:05:41;;;;;;;;;;;;;;;-141.59;100.00;61776.25;5113540;27;19970;-85
2023/04/23 12:08:09;;;;;;;;;;;;;;;-141.59;100.00;61776.25;5093851;28;19968;-86
2023/04/23 12:10:41;;;;;;;;;;;;;;;-141.59;100.00;61776.25;5105368;28;19951;-82
2023/04/23 12:13:15;;;;;;;;;;;;;;;-141.59;100.00;61776.25;5102639;28;19947;-84
2023/04/23 12:15:48;;;;;;;;;;;;;;;-141.59;100.00;61776.25;5103320;28;19940;-84
2023/04/23 12:18:15;;;;;;;;;;;;;;;-141.59;100.00;61776.25;5118785;27;19944;-84
2023/04/23 12:20:42;;;;;;;;;;;;;;;-141.59;100.00;61776.25;5106319;28;19947;-84
2023/04/23 12:23:09;;;;;;;;;;;;;;;-141.59;100.00;61776.25;5104945;28;20045;-84